createdAt,value
2016-03-23T00:00:31.688Z,987.8
2016-03-23T00:01:31.674Z,987.79
2016-03-23T00:02:31.677Z,987.8
2016-03-23T00:03:31.679Z,987.8
2016-03-23T00:04:31.682Z,987.79
2016-03-23T00:05:31.669Z,987.79
2016-03-23T00:06:31.673Z,987.79
2016-03-23T00:07:31.675Z,987.8
2016-03-23T00:08:31.677Z,987.76
2016-03-23T00:09:31.680Z,987.75
2016-03-23T00:10:31.683Z,987.73
2016-03-23T00:11:31.686Z,987.72
2016-03-23T00:12:31.672Z,987.73
2016-03-23T00:13:31.691Z,987.68
2016-03-23T00:14:31.678Z,987.75
2016-03-23T00:15:31.680Z,987.71
2016-03-23T00:16:31.684Z,987.73
2016-03-23T00:17:31.686Z,987.71
2016-03-23T00:18:31.689Z,987.73
2016-03-23T00:19:31.691Z,987.74
2016-03-23T00:20:31.694Z,987.74
2016-03-23T00:21:31.682Z,987.73
2016-03-23T00:22:31.684Z,987.73
2016-03-23T00:23:31.688Z,987.76
2016-03-23T00:24:31.674Z,987.75
2016-03-23T00:25:31.677Z,987.72
2016-03-23T00:26:31.679Z,987.71
2016-03-23T00:27:31.682Z,987.73
2016-03-23T00:28:31.685Z,987.72
2016-03-23T00:29:31.687Z,987.7
2016-03-23T00:30:31.678Z,987.72
2016-03-23T00:31:31.696Z,987.75
2016-03-23T00:32:31.683Z,987.73
2016-03-23T00:33:31.701Z,987.7
2016-03-23T00:34:31.688Z,987.73
2016-03-23T00:35:31.690Z,987.7
2016-03-23T00:36:31.678Z,987.69
2016-03-23T00:37:31.696Z,987.69
2016-03-23T00:38:31.684Z,987.71
2016-03-23T00:39:31.686Z,987.7
2016-03-23T00:40:31.689Z,987.68
2016-03-23T00:41:31.692Z,987.64
2016-03-23T00:42:31.694Z,987.65
2016-03-23T00:43:31.697Z,987.67
2016-03-23T00:44:31.699Z,987.62
2016-03-23T00:45:31.717Z,987.63
2016-03-23T00:46:31.689Z,987.62
2016-03-23T00:47:31.691Z,987.63
2016-03-23T00:48:31.695Z,987.61
2016-03-23T00:49:31.697Z,987.63
2016-03-23T00:50:31.700Z,987.64
2016-03-23T00:51:31.687Z,987.6
2016-03-23T00:52:31.705Z,987.58
2016-03-23T00:53:31.692Z,987.6
2016-03-23T00:54:31.694Z,987.56
2016-03-23T00:55:31.698Z,987.61
2016-03-23T00:56:31.700Z,987.52
2016-03-23T00:57:31.687Z,987.56
2016-03-23T00:58:31.783Z,987.57
2016-03-23T00:59:31.693Z,987.55
2016-03-23T01:00:31.696Z,987.57
2016-03-23T01:01:31.699Z,987.53
2016-03-23T01:02:31.702Z,987.51
2016-03-23T01:03:31.704Z,987.49
2016-03-23T01:04:31.706Z,987.46
2016-03-23T01:05:31.693Z,987.45
2016-03-23T01:06:31.696Z,987.46
2016-03-23T01:07:31.698Z,987.46
2016-03-23T01:08:31.701Z,987.45
2016-03-23T01:09:31.703Z,987.42
2016-03-23T01:10:31.707Z,987.4
2016-03-23T01:11:31.725Z,987.41
2016-03-23T01:12:31.696Z,987.43
2016-03-23T01:13:31.715Z,987.4
2016-03-23T01:14:31.701Z,987.41
2016-03-23T01:15:31.704Z,987.36
2016-03-23T01:16:31.707Z,987.4
2016-03-23T01:17:31.710Z,987.34
2016-03-23T01:18:31.712Z,987.35
2016-03-23T01:19:31.714Z,987.34
2016-03-23T01:20:31.718Z,987.35
2016-03-23T01:21:31.705Z,987.31
2016-03-23T01:22:31.708Z,987.33
2016-03-23T01:23:31.726Z,987.37
2016-03-23T01:24:31.713Z,987.38
2016-03-23T01:25:31.716Z,987.41
2016-03-23T01:26:31.703Z,987.37
2016-03-23T01:27:31.706Z,987.38
2016-03-23T01:28:31.708Z,987.41
2016-03-23T01:29:31.710Z,987.36
2016-03-23T01:30:31.714Z,987.39
2016-03-23T01:31:31.716Z,987.39
2016-03-23T01:32:31.719Z,987.37
2016-03-23T01:33:31.707Z,987.39
2016-03-23T01:34:31.710Z,987.37
2016-03-23T01:35:31.712Z,987.37
2016-03-23T01:36:31.714Z,987.36
2016-03-23T01:37:31.717Z,987.38
2016-03-23T01:38:31.720Z,987.34
2016-03-23T01:39:31.707Z,987.36
2016-03-23T01:40:31.725Z,987.38
2016-03-23T01:41:31.728Z,987.35
2016-03-23T01:42:31.715Z,987.36
2016-03-23T01:43:31.733Z,987.32
2016-03-23T01:44:31.720Z,987.32
2016-03-23T01:45:31.723Z,987.33
2016-03-23T01:46:31.709Z,987.32
2016-03-23T01:47:31.728Z,987.31
2016-03-23T01:48:31.715Z,987.31
2016-03-23T01:49:31.717Z,987.29
2016-03-23T01:50:31.720Z,987.29
2016-03-23T01:51:31.723Z,987.26
2016-03-23T01:52:31.726Z,987.3
2016-03-23T01:53:31.728Z,987.27
2016-03-23T01:54:31.731Z,987.25
2016-03-23T01:55:31.734Z,987.23
2016-03-23T01:56:31.721Z,987.25
2016-03-23T01:57:31.724Z,987.27
2016-03-23T01:58:31.726Z,987.26
2016-03-23T01:59:31.730Z,987.26
2016-03-23T02:00:31.732Z,987.23
2016-03-23T02:01:31.734Z,987.27
2016-03-23T02:02:31.722Z,987.24
2016-03-23T02:03:31.724Z,987.27
2016-03-23T02:04:31.727Z,987.22
2016-03-23T02:05:31.730Z,987.19
2016-03-23T02:06:31.733Z,987.18
2016-03-23T02:07:31.719Z,987.26
2016-03-23T02:08:32.495Z,987.21
2016-03-23T02:09:31.729Z,987.23
2016-03-23T02:10:31.738Z,987.16
2016-03-23T02:11:36.906Z,987.2
2016-03-23T02:12:31.723Z,987.19
2016-03-23T02:13:31.740Z,987.2
2016-03-23T02:14:31.728Z,987.23
2016-03-23T02:15:31.730Z,987.19
2016-03-23T02:16:31.748Z,987.21
2016-03-23T02:17:31.751Z,987.21
2016-03-23T02:18:31.738Z,987.15
2016-03-23T02:19:31.725Z,987.16
2016-03-23T02:20:31.734Z,987.18
2016-03-23T02:21:31.721Z,987.14
2016-03-23T02:22:31.723Z,987.09
2016-03-23T02:23:31.726Z,987.15
2016-03-23T02:24:31.728Z,987.12
2016-03-23T02:25:31.732Z,987.11
2016-03-23T02:26:31.734Z,987.1
2016-03-23T02:27:31.736Z,987.09
2016-03-23T02:28:31.739Z,987.14
2016-03-23T02:29:31.727Z,987.11
2016-03-23T02:30:31.791Z,987.12
2016-03-23T02:31:31.733Z,987.11
2016-03-23T02:32:31.735Z,987.13
2016-03-23T02:33:31.738Z,987.08
2016-03-23T02:34:31.724Z,987.06
2016-03-23T02:35:31.743Z,987.06
2016-03-23T02:36:31.730Z,987.06
2016-03-23T02:37:31.732Z,987.03
2016-03-23T02:38:31.735Z,987.08
2016-03-23T02:39:31.737Z,987.04
2016-03-23T02:40:31.741Z,987.04
2016-03-23T02:41:31.743Z,987.03
2016-03-23T02:42:31.730Z,987.06
2016-03-23T02:43:31.733Z,987.09
2016-03-23T02:44:31.735Z,987.06
2016-03-23T02:45:31.738Z,987.05
2016-03-23T02:46:31.740Z,987.03
2016-03-23T02:47:31.744Z,987.07
2016-03-23T02:48:31.746Z,987.02
2016-03-23T02:49:31.734Z,987.05
2016-03-23T02:50:31.736Z,987.05
2016-03-23T02:51:31.739Z,987.02
2016-03-23T02:52:31.742Z,986.99
2016-03-23T02:53:31.744Z,987.01
2016-03-23T02:54:31.748Z,987
2016-03-23T02:55:31.734Z,987.03
2016-03-23T02:56:31.737Z,987
2016-03-23T02:57:31.740Z,987.04
2016-03-23T02:58:31.742Z,987.01
2016-03-23T02:59:31.745Z,987
2016-03-23T03:00:31.747Z,987.05
2016-03-23T03:01:31.735Z,987.01
2016-03-23T03:02:31.738Z,987.01
2016-03-23T03:03:31.740Z,987
2016-03-23T03:04:31.743Z,986.99
2016-03-23T03:05:31.746Z,986.97
2016-03-23T03:06:31.733Z,987.02
2016-03-23T03:07:31.751Z,987
2016-03-23T03:08:31.738Z,986.99
2016-03-23T03:09:31.741Z,986.94
2016-03-23T03:10:31.760Z,986.95
2016-03-23T03:11:31.746Z,986.96
2016-03-23T03:12:31.748Z,986.95
2016-03-23T03:13:31.735Z,986.89
2016-03-23T03:14:31.738Z,986.9
2016-03-23T03:15:31.740Z,986.92
2016-03-23T03:16:31.744Z,986.88
2016-03-23T03:17:31.746Z,986.9
2016-03-23T03:18:31.748Z,986.91
2016-03-23T03:19:31.751Z,986.89
2016-03-23T03:20:31.754Z,986.85
2016-03-23T03:21:31.757Z,986.86
2016-03-23T03:22:31.744Z,986.84
2016-03-23T03:23:31.762Z,986.81
2016-03-23T03:24:31.750Z,986.82
2016-03-23T03:25:31.752Z,986.79
2016-03-23T03:26:31.755Z,986.75
2016-03-23T03:27:31.742Z,986.75
2016-03-23T03:28:31.745Z,986.74
2016-03-23T03:29:31.747Z,986.77
2016-03-23T03:30:31.750Z,986.74
2016-03-23T03:31:31.753Z,986.72
2016-03-23T03:32:31.741Z,986.7
2016-03-23T03:33:31.743Z,986.71
2016-03-23T03:34:31.745Z,986.72
2016-03-23T03:35:31.748Z,986.72
2016-03-23T03:36:31.751Z,986.68
2016-03-23T03:37:31.754Z,986.7
2016-03-23T03:38:31.741Z,986.67
2016-03-23T03:39:31.744Z,986.66
2016-03-23T03:40:31.747Z,986.65
2016-03-23T03:41:31.749Z,986.68
2016-03-23T03:42:31.753Z,986.64
2016-03-23T03:43:31.739Z,986.65
2016-03-23T03:44:31.742Z,986.65
2016-03-23T03:45:31.744Z,986.65
2016-03-23T03:46:31.747Z,986.66
2016-03-23T03:47:31.750Z,986.67
2016-03-23T03:48:31.752Z,986.65
2016-03-23T03:49:31.740Z,986.66
2016-03-23T03:50:31.743Z,986.62
2016-03-23T03:51:31.745Z,986.66
2016-03-23T03:52:31.748Z,986.65
2016-03-23T03:53:31.751Z,986.7
2016-03-23T03:54:31.738Z,986.7
2016-03-23T03:55:31.740Z,986.71
2016-03-23T03:56:31.759Z,986.66
2016-03-23T03:57:31.746Z,986.66
2016-03-23T03:58:31.748Z,986.68
2016-03-23T03:59:31.751Z,986.7
2016-03-23T04:00:31.754Z,986.68
2016-03-23T04:01:31.740Z,986.68
2016-03-23T04:02:31.743Z,986.67
2016-03-23T04:03:31.746Z,986.65
2016-03-23T04:04:31.765Z,986.67
2016-03-23T04:05:31.736Z,986.64
2016-03-23T04:06:31.754Z,986.68
2016-03-23T04:07:31.741Z,986.69
2016-03-23T04:08:31.775Z,986.65
2016-03-23T04:09:31.747Z,986.65
2016-03-23T04:10:31.749Z,986.66
2016-03-23T04:11:31.753Z,986.64
2016-03-23T04:12:31.739Z,986.69
2016-03-23T04:13:31.742Z,986.65
2016-03-23T04:14:31.744Z,986.64
2016-03-23T04:15:31.747Z,986.65
2016-03-23T04:16:31.750Z,986.65
2016-03-23T04:17:31.752Z,986.62
2016-03-23T04:18:31.755Z,986.63
2016-03-23T04:19:31.741Z,986.64
2016-03-23T04:20:31.744Z,986.63
2016-03-23T04:21:31.747Z,986.65
2016-03-23T04:22:31.749Z,986.64
2016-03-23T04:23:31.752Z,986.66
2016-03-23T04:24:31.755Z,986.66
2016-03-23T04:25:31.742Z,986.64
2016-03-23T04:26:31.760Z,986.63
2016-03-23T04:27:31.748Z,986.64
2016-03-23T04:28:31.750Z,986.65
2016-03-23T04:29:31.753Z,986.69
2016-03-23T04:30:31.756Z,986.63
2016-03-23T04:31:31.743Z,986.66
2016-03-23T04:32:31.745Z,986.6
2016-03-23T04:33:31.748Z,986.6
2016-03-23T04:34:31.751Z,986.65
2016-03-23T04:35:31.738Z,986.65
2016-03-23T04:36:31.741Z,986.63
2016-03-23T04:37:31.853Z,986.66
2016-03-23T04:38:31.744Z,986.62
2016-03-23T04:39:31.747Z,986.62
2016-03-23T04:40:31.764Z,986.61
2016-03-23T04:41:31.752Z,986.6
2016-03-23T04:42:31.755Z,986.65
2016-03-23T04:43:31.742Z,986.66
2016-03-23T04:44:31.744Z,986.64
2016-03-23T04:45:31.747Z,986.62
2016-03-23T04:46:31.750Z,986.66
2016-03-23T04:47:31.752Z,986.62
2016-03-23T04:48:31.739Z,986.62
2016-03-23T04:49:31.742Z,986.61
2016-03-23T04:50:31.745Z,986.66
2016-03-23T04:51:31.747Z,986.66
2016-03-23T04:52:31.749Z,986.63
2016-03-23T04:53:31.738Z,986.62
2016-03-23T04:54:31.740Z,986.64
2016-03-23T04:55:31.743Z,986.62
2016-03-23T04:56:31.746Z,986.62
2016-03-23T04:57:31.810Z,986.63
2016-03-23T04:58:31.891Z,986.63
2016-03-23T04:59:32.081Z,986.64
2016-03-23T05:00:31.819Z,986.63
2016-03-23T05:01:31.743Z,986.62
2016-03-23T05:02:31.809Z,986.63
2016-03-23T05:03:31.748Z,986.63
2016-03-23T05:04:31.751Z,986.62
2016-03-23T05:05:31.737Z,986.67
2016-03-23T05:06:31.741Z,986.61
2016-03-23T05:07:31.806Z,986.61
2016-03-23T05:08:31.746Z,986.61
2016-03-23T05:09:31.827Z,986.6
2016-03-23T05:10:31.736Z,986.66
2016-03-23T05:11:31.817Z,986.63
2016-03-23T05:12:31.741Z,986.66
2016-03-23T05:13:31.822Z,986.7
2016-03-23T05:14:31.777Z,986.66
2016-03-23T05:15:31.750Z,986.72
2016-03-23T05:16:31.764Z,986.74
2016-03-23T05:17:31.742Z,986.78
2016-03-23T05:18:31.765Z,986.79
2016-03-23T05:19:31.788Z,986.73
2016-03-23T05:20:31.719Z,986.78
2016-03-23T05:21:31.697Z,986.81
2016-03-23T05:22:31.790Z,986.82
2016-03-23T05:23:31.680Z,986.81
2016-03-23T05:24:31.679Z,986.8
2016-03-23T05:25:31.679Z,986.82
2016-03-23T05:26:31.663Z,986.83
2016-03-23T05:27:31.789Z,986.82
2016-03-23T05:28:31.790Z,986.85
2016-03-23T05:29:31.744Z,986.84
2016-03-23T05:30:31.729Z,986.86
2016-03-23T05:31:31.730Z,986.82
2016-03-23T05:32:31.733Z,986.88
2016-03-23T05:33:31.736Z,986.9
2016-03-23T05:34:31.770Z,986.89
2016-03-23T05:35:31.803Z,986.9
2016-03-23T05:36:31.665Z,986.9
2016-03-23T05:37:31.730Z,986.92
2016-03-23T05:38:31.670Z,986.97
2016-03-23T05:39:31.797Z,986.91
2016-03-23T05:40:31.660Z,986.89
2016-03-23T05:41:31.663Z,986.9
2016-03-23T05:42:31.727Z,986.92
2016-03-23T05:43:31.652Z,986.91
2016-03-23T05:44:31.670Z,986.94
2016-03-23T05:45:31.751Z,986.91
2016-03-23T05:46:31.660Z,986.94
2016-03-23T05:47:31.726Z,986.92
2016-03-23T05:48:31.650Z,986.93
2016-03-23T05:49:31.668Z,986.93
2016-03-23T05:50:31.655Z,986.96
2016-03-23T05:51:31.751Z,986.97
2016-03-23T05:52:31.723Z,986.94
2016-03-23T05:53:31.663Z,987
2016-03-23T05:54:31.651Z,986.97
2016-03-23T05:55:31.668Z,986.95
2016-03-23T05:56:31.657Z,987.01
2016-03-23T05:57:31.737Z,987.01
2016-03-23T05:58:31.740Z,987.03
2016-03-23T05:59:31.727Z,987.03
2016-03-23T06:00:31.667Z,987.01
2016-03-23T06:01:31.654Z,987.09
2016-03-23T06:02:31.656Z,987.04
2016-03-23T06:03:31.675Z,987.06
2016-03-23T06:04:31.678Z,987.07
2016-03-23T06:05:31.664Z,987.04
2016-03-23T06:06:31.667Z,987.06
2016-03-23T06:07:31.653Z,987.09
2016-03-23T06:08:31.801Z,987.09
2016-03-23T06:09:31.788Z,987.08
2016-03-23T06:10:31.729Z,987.1
2016-03-23T06:11:31.716Z,987.12
2016-03-23T06:12:31.656Z,987.1
2016-03-23T06:13:31.737Z,987.1
2016-03-23T06:14:31.959Z,987.14
2016-03-23T06:15:31.664Z,987.11
2016-03-23T06:16:31.667Z,987.12
2016-03-23T06:17:31.653Z,987.14
2016-03-23T06:18:31.734Z,987.09
2016-03-23T06:19:31.722Z,987.08
2016-03-23T06:20:31.725Z,987.08
2016-03-23T06:21:31.665Z,987.08
2016-03-23T06:22:31.652Z,987.09
2016-03-23T06:23:31.733Z,987.09
2016-03-23T06:24:31.766Z,987.08
2016-03-23T06:25:31.722Z,987.09
2016-03-23T06:26:31.725Z,987.1
2016-03-23T06:27:31.728Z,987.08
2016-03-23T06:29:31.655Z,987.13
2016-03-23T06:30:31.735Z,987.13
2016-03-23T06:31:31.660Z,987.14
2016-03-23T06:32:31.663Z,987.15
2016-03-23T06:33:31.728Z,987.16
2016-03-23T06:34:31.731Z,987.16
2016-03-23T06:35:31.733Z,987.17
2016-03-23T06:36:31.658Z,987.17
2016-03-23T06:37:31.723Z,987.18
2016-03-23T06:38:31.945Z,987.14
2016-03-23T06:39:31.776Z,987.16
2016-03-23T06:40:31.809Z,987.15
2016-03-23T06:41:31.656Z,987.15
2016-03-23T06:42:31.658Z,987.16
2016-03-23T06:43:31.661Z,987.18
2016-03-23T06:44:31.679Z,987.2
2016-03-23T06:45:31.682Z,987.17
2016-03-23T06:46:31.732Z,987.13
2016-03-23T06:47:31.672Z,987.13
2016-03-23T06:48:31.675Z,987.14
2016-03-23T06:49:31.661Z,987.12
2016-03-23T06:50:31.664Z,987.09
2016-03-23T06:51:31.667Z,987.14
2016-03-23T06:52:31.669Z,987.11
2016-03-23T06:53:31.672Z,987.1
2016-03-23T06:54:31.675Z,987.1
2016-03-23T06:55:31.678Z,987.08
2016-03-23T06:56:31.665Z,987.15
2016-03-23T06:57:31.668Z,987.1
2016-03-23T06:58:31.670Z,987.14
2016-03-23T06:59:31.689Z,987.14
2016-03-23T07:00:31.676Z,987.11
2016-03-23T07:01:31.694Z,987.1
2016-03-23T07:02:31.666Z,987.1
2016-03-23T07:03:31.669Z,987.09
2016-03-23T07:04:31.671Z,987.11
2016-03-23T07:05:31.674Z,987.11
2016-03-23T07:06:31.676Z,987.07
2016-03-23T07:07:31.679Z,987.09
2016-03-23T07:08:31.681Z,987.07
2016-03-23T07:09:31.685Z,987.07
2016-03-23T07:10:31.687Z,987.08
2016-03-23T07:11:31.674Z,987.06
2016-03-23T07:12:31.677Z,987.06
2016-03-23T07:13:31.679Z,987.03
2016-03-23T07:14:31.682Z,987.03
2016-03-23T07:15:31.684Z,987
2016-03-23T07:16:31.687Z,987.05
2016-03-23T07:17:31.690Z,986.95
2016-03-23T07:18:31.677Z,986.98
2016-03-23T07:19:31.680Z,987.01
2016-03-23T07:20:31.683Z,987.02
2016-03-23T07:21:31.685Z,987
2016-03-23T07:22:31.688Z,986.99
2016-03-23T07:23:31.691Z,987.04
2016-03-23T07:24:31.694Z,987.05
2016-03-23T07:25:31.681Z,987.06
2016-03-23T07:26:31.683Z,987.01
2016-03-23T07:27:31.686Z,987.02
2016-03-23T07:28:31.688Z,986.97
2016-03-23T07:29:31.691Z,987.02
2016-03-23T07:30:31.694Z,986.98
2016-03-23T07:31:31.697Z,987
2016-03-23T07:32:31.683Z,986.96
2016-03-23T07:33:31.686Z,987
2016-03-23T07:34:31.689Z,987.01
2016-03-23T07:35:31.707Z,987.03
2016-03-23T07:36:31.694Z,987.09
2016-03-23T07:37:31.697Z,987.11
2016-03-23T07:38:31.699Z,987.03
2016-03-23T07:39:31.702Z,987.08
2016-03-23T07:40:31.689Z,987.21
2016-03-23T07:41:31.707Z,987.16
2016-03-23T07:42:31.695Z,987.16
2016-03-23T07:43:31.712Z,987.16
2016-03-23T07:44:31.701Z,987.15
2016-03-23T07:45:31.703Z,987.08
2016-03-23T07:46:31.706Z,986.94
2016-03-23T07:47:31.709Z,986.88
2016-03-23T07:48:31.711Z,986.92
2016-03-23T07:49:31.714Z,986.86
2016-03-23T07:50:31.717Z,986.89
2016-03-23T07:51:31.719Z,986.85
2016-03-23T07:52:31.722Z,986.88
2016-03-23T07:53:31.724Z,986.96
2016-03-23T07:54:31.727Z,986.97
2016-03-23T07:55:31.730Z,986.98
2016-03-23T07:56:31.732Z,987
2016-03-23T07:57:31.736Z,987.02
2016-03-23T07:58:31.753Z,987.07
2016-03-23T07:59:31.741Z,987.19
2016-03-23T08:00:31.743Z,987.1
2016-03-23T08:01:31.746Z,987.13
2016-03-23T08:02:31.733Z,987.2
2016-03-23T08:03:31.752Z,987.26
2016-03-23T08:04:31.755Z,987.13
2016-03-23T08:05:31.757Z,987.13
2016-03-23T08:06:31.744Z,987.08
2016-03-23T08:07:31.746Z,987.01
2016-03-23T08:08:31.765Z,986.99
2016-03-23T08:09:31.752Z,987.02
2016-03-23T08:10:31.770Z,987.03
2016-03-23T08:11:31.757Z,987.16
2016-03-23T08:12:31.759Z,987.2
2016-03-23T08:13:31.778Z,987.23
2016-03-23T08:14:31.765Z,987.28
2016-03-23T08:15:31.768Z,987.33
2016-03-23T08:16:31.786Z,987.28
2016-03-23T08:17:31.789Z,987.26
2016-03-23T08:18:31.776Z,987.2
2016-03-23T08:19:31.778Z,987.22
2016-03-23T08:20:31.782Z,987.25
2016-03-23T08:21:31.784Z,987.16
2016-03-23T08:22:31.787Z,987.15
2016-03-23T08:23:31.805Z,987.14
2016-03-23T08:24:31.808Z,987.18
2016-03-23T08:25:31.811Z,987.24
2016-03-23T08:26:31.813Z,987.27
2016-03-23T08:27:31.816Z,987.3
2016-03-23T08:28:31.803Z,987.28
2016-03-23T08:29:31.821Z,987.22
2016-03-23T08:30:31.825Z,987.14
2016-03-23T08:31:31.827Z,987.13
2016-03-23T08:32:31.830Z,987.19
2016-03-23T08:33:31.832Z,987.26
2016-03-23T08:34:31.835Z,987.19
2016-03-23T08:35:31.838Z,987.2
2016-03-23T08:36:31.840Z,987.21
2016-03-23T08:37:31.843Z,987.17
2016-03-23T08:38:31.845Z,987.14
2016-03-23T08:39:31.849Z,987.11
2016-03-23T08:40:31.851Z,987.15
2016-03-23T08:41:31.854Z,987.18
2016-03-23T08:42:31.872Z,987.27
2016-03-23T08:43:31.859Z,987.34
2016-03-23T08:44:31.861Z,987.33
2016-03-23T08:45:31.880Z,987.27
2016-03-23T08:46:32.007Z,987.26
2016-03-23T08:47:31.995Z,987.21
2016-03-23T08:48:31.950Z,987.22
2016-03-23T08:49:31.968Z,987.22
2016-03-23T08:50:31.956Z,987.24
2016-03-23T08:51:32.036Z,987.29
2016-03-23T08:52:31.962Z,987.4
2016-03-23T08:53:31.901Z,987.37
2016-03-23T08:54:31.919Z,987.25
2016-03-23T08:55:31.922Z,987.25
2016-03-23T08:56:32.050Z,987.24
2016-03-23T08:57:32.037Z,987.28
2016-03-23T08:58:31.977Z,987.27
2016-03-23T08:59:31.933Z,987.3
2016-03-23T09:00:31.998Z,987.3
2016-03-23T09:01:32.079Z,987.29
2016-03-23T09:02:31.942Z,987.39
2016-03-23T09:03:31.944Z,987.38
2016-03-23T09:04:31.947Z,987.35
2016-03-23T09:05:32.027Z,987.27
2016-03-23T09:06:31.952Z,987.22
2016-03-23T09:07:32.033Z,987.24
2016-03-23T09:08:31.973Z,987.16
2016-03-23T09:09:31.976Z,987.14
2016-03-23T09:10:31.978Z,987.14
2016-03-23T09:11:32.060Z,987.15
2016-03-23T09:12:31.999Z,987.13
2016-03-23T09:13:31.987Z,987.21
2016-03-23T09:14:32.067Z,987.24
2016-03-23T09:15:32.132Z,987.27
2016-03-23T09:16:32.010Z,987.3
2016-03-23T09:17:32.044Z,987.36
2016-03-23T09:18:32.015Z,987.35
2016-03-23T09:19:32.018Z,987.41
2016-03-23T09:20:32.098Z,987.35
2016-03-23T09:21:32.117Z,987.39
2016-03-23T09:22:32.057Z,987.37
2016-03-23T09:23:32.044Z,987.37
2016-03-23T09:24:32.048Z,987.38
2016-03-23T09:25:32.050Z,987.4
2016-03-23T09:26:32.052Z,987.4
2016-03-23T09:27:32.133Z,987.3
2016-03-23T09:28:32.073Z,987.31
2016-03-23T09:29:32.201Z,987.34
2016-03-23T09:30:32.141Z,987.43
2016-03-23T09:31:32.175Z,987.43
2016-03-23T09:32:32.084Z,987.43
2016-03-23T09:33:32.102Z,987.44
2016-03-23T09:34:32.106Z,987.41
2016-03-23T09:35:32.108Z,987.43
2016-03-23T09:36:32.110Z,987.41
2016-03-23T09:37:32.113Z,987.38
2016-03-23T09:38:32.210Z,987.39
2016-03-23T09:39:32.244Z,987.37
2016-03-23T09:40:32.199Z,987.37
2016-03-23T09:41:32.140Z,987.27
2016-03-23T09:42:32.143Z,987.26
2016-03-23T09:43:32.145Z,987.26
2016-03-23T09:44:32.242Z,987.25
2016-03-23T09:45:32.260Z,987.25
2016-03-23T09:46:32.169Z,987.17
2016-03-23T09:47:32.172Z,987.18
2016-03-23T09:48:32.190Z,987.21
2016-03-23T09:49:32.177Z,987.18
2016-03-23T09:50:32.195Z,987.11
2016-03-23T09:51:32.197Z,987.03
2016-03-23T09:52:32.200Z,986.94
2016-03-23T09:53:32.203Z,986.93
2016-03-23T09:54:32.643Z,987
2016-03-23T09:55:32.209Z,987.1
2016-03-23T09:56:32.228Z,987.07
2016-03-23T09:57:32.230Z,987.06
2016-03-23T09:58:32.232Z,987
2016-03-23T09:59:32.236Z,987.03
2016-03-23T10:00:32.253Z,987.05
2016-03-23T10:01:32.271Z,987.04
2016-03-23T10:02:32.258Z,987.01
2016-03-23T10:03:32.277Z,987
2016-03-23T10:04:32.264Z,986.97
2016-03-23T10:05:32.267Z,986.97
2016-03-23T10:06:32.285Z,986.94
2016-03-23T10:07:32.288Z,986.95
2016-03-23T10:08:32.290Z,986.86
2016-03-23T10:09:32.294Z,986.81
2016-03-23T10:10:32.296Z,986.75
2016-03-23T10:11:32.314Z,986.7
2016-03-23T10:12:32.316Z,986.68
2016-03-23T10:13:32.319Z,986.7
2016-03-23T10:14:32.322Z,986.68
2016-03-23T10:15:32.324Z,986.69
2016-03-23T10:16:32.344Z,986.68
2016-03-23T10:17:32.346Z,986.73
2016-03-23T10:18:32.348Z,986.69
2016-03-23T10:19:32.352Z,986.69
2016-03-23T10:20:32.354Z,986.62
2016-03-23T10:21:32.373Z,986.62
2016-03-23T10:22:32.375Z,986.69
2016-03-23T10:23:32.378Z,986.73
2016-03-23T10:24:32.380Z,986.77
2016-03-23T10:25:32.384Z,986.8
2016-03-23T10:26:32.401Z,986.82
2016-03-23T10:27:32.403Z,986.83
2016-03-23T10:28:32.406Z,986.75
2016-03-23T10:29:32.409Z,986.74
2016-03-23T10:30:33.006Z,986.76
2016-03-23T10:31:32.524Z,986.7
2016-03-23T10:32:32.417Z,986.65
2016-03-23T10:33:32.436Z,986.64
2016-03-23T10:34:32.422Z,986.62
2016-03-23T10:35:32.442Z,986.67
2016-03-23T10:36:32.444Z,986.77
2016-03-23T10:37:32.446Z,986.88
2016-03-23T10:38:32.480Z,986.93
2016-03-23T10:39:32.452Z,986.9
2016-03-23T10:40:32.455Z,986.94
2016-03-23T10:41:32.457Z,986.89
2016-03-23T10:42:32.476Z,986.91
2016-03-23T10:43:32.479Z,986.86
2016-03-23T10:44:32.481Z,986.84
2016-03-23T10:45:32.485Z,986.84
2016-03-23T10:46:32.487Z,986.85
2016-03-23T10:47:32.490Z,986.81
2016-03-23T10:48:32.492Z,986.74
2016-03-23T10:49:32.495Z,986.71
2016-03-23T10:50:32.512Z,986.75
2016-03-23T10:51:32.500Z,986.77
2016-03-23T10:52:32.518Z,986.72
2016-03-23T10:53:32.520Z,986.61
2016-03-23T10:54:32.523Z,986.63
2016-03-23T10:55:32.526Z,986.58
2016-03-23T10:56:32.529Z,986.63
2016-03-23T10:57:32.531Z,986.6
2016-03-23T10:58:32.534Z,986.62
2016-03-23T10:59:32.553Z,986.58
2016-03-23T11:00:32.560Z,986.6
2016-03-23T11:01:32.563Z,986.61
2016-03-23T11:02:32.566Z,986.6
2016-03-23T11:03:32.569Z,986.59
2016-03-23T11:04:32.571Z,986.54
2016-03-23T11:05:32.574Z,986.5
2016-03-23T11:06:32.591Z,986.51
2016-03-23T11:07:32.594Z,986.49
2016-03-23T11:08:32.597Z,986.5
2016-03-23T11:09:32.600Z,986.56
2016-03-23T11:10:32.618Z,986.57
2016-03-23T11:11:32.605Z,986.56
2016-03-23T11:12:32.608Z,986.52
2016-03-23T11:13:32.626Z,986.56
2016-03-23T11:14:32.629Z,986.57
2016-03-23T11:15:32.615Z,986.6
2016-03-23T11:16:32.619Z,986.67
2016-03-23T11:17:32.621Z,986.63
2016-03-23T11:18:32.639Z,986.66
2016-03-23T11:19:32.643Z,986.63
2016-03-23T11:20:32.645Z,986.63
2016-03-23T11:21:32.648Z,986.62
2016-03-23T11:22:32.651Z,986.62
2016-03-23T11:23:32.653Z,986.63
2016-03-23T11:24:32.656Z,986.64
2016-03-23T11:25:32.658Z,986.65
2016-03-23T11:26:32.959Z,986.6
2016-03-23T11:27:32.664Z,986.55
2016-03-23T11:28:32.683Z,986.62
2016-03-23T11:29:32.686Z,986.56
2016-03-23T11:30:32.734Z,986.52
2016-03-23T11:31:32.691Z,986.47
2016-03-23T11:32:32.694Z,986.51
2016-03-23T11:33:32.712Z,986.54
2016-03-23T11:34:32.699Z,986.53
2016-03-23T11:35:32.701Z,986.54
2016-03-23T11:36:32.720Z,986.52
2016-03-23T11:37:32.722Z,986.49
2016-03-23T11:38:32.725Z,986.5
2016-03-23T11:39:32.727Z,986.49
2016-03-23T11:40:32.730Z,986.49
2016-03-23T11:41:32.732Z,986.5
2016-03-23T11:42:32.736Z,986.48
2016-03-23T11:43:32.738Z,986.5
2016-03-23T11:44:32.740Z,986.44
2016-03-23T11:45:32.743Z,986.47
2016-03-23T11:46:32.746Z,986.41
2016-03-23T11:47:32.749Z,986.45
2016-03-23T11:48:32.767Z,986.44
2016-03-23T11:49:32.770Z,986.47
2016-03-23T11:50:32.757Z,986.42
2016-03-23T11:51:32.775Z,986.47
2016-03-23T11:52:32.779Z,986.44
2016-03-23T11:53:32.781Z,986.49
2016-03-23T11:54:32.784Z,986.47
2016-03-23T11:55:32.848Z,986.53
2016-03-23T11:56:32.820Z,986.53
2016-03-23T11:57:32.792Z,986.6
2016-03-23T11:58:32.794Z,986.6
2016-03-23T11:59:32.797Z,986.57
2016-03-23T12:00:32.847Z,986.51
2016-03-23T12:01:32.802Z,986.53
2016-03-23T12:02:32.806Z,986.49
2016-03-23T12:03:32.823Z,986.48
2016-03-23T12:04:32.810Z,986.41
2016-03-23T12:05:32.813Z,986.38
2016-03-23T12:06:32.831Z,986.39
2016-03-23T12:07:32.834Z,986.39
2016-03-23T12:08:32.836Z,986.35
2016-03-23T12:09:32.824Z,986.31
2016-03-23T12:10:32.841Z,986.29
2016-03-23T12:11:32.844Z,986.34
2016-03-23T12:12:32.847Z,986.4
2016-03-23T12:13:32.850Z,986.46
2016-03-23T12:14:32.852Z,986.53
2016-03-23T12:15:32.996Z,986.66
2016-03-23T12:16:32.858Z,986.59
2016-03-23T12:17:32.877Z,986.53
2016-03-23T12:18:32.863Z,986.55
2016-03-23T12:19:32.882Z,986.46
2016-03-23T12:20:32.900Z,986.35
2016-03-23T12:21:32.888Z,986.25
2016-03-23T12:22:32.890Z,986.22
2016-03-23T12:23:32.893Z,986.19
2016-03-23T12:24:32.911Z,986.2
2016-03-23T12:25:32.898Z,986.27
2016-03-23T12:26:32.917Z,986.3
2016-03-23T12:27:32.919Z,986.28
2016-03-23T12:28:32.922Z,986.25
2016-03-23T12:29:32.940Z,986.22
2016-03-23T12:30:32.927Z,986.27
2016-03-23T12:31:32.930Z,986.31
2016-03-23T12:32:32.948Z,986.41
2016-03-23T12:33:32.950Z,986.35